sensor_id;sensor_type;location;lat;lon;timestamp;temperature;humidity
22450;DHT22;11392;57.390;-2.468;2023-03-01T00:01:37;4.40;99.90
22450;DHT22;11392;57.390;-2.468;2023-03-01T00:04:04;4.40;99.90
22450;DHT22;11392;57.390;-2.468;2023-03-01T00:06:31;4.30;99.90
22450;DHT22;11392;57.390;-2.468;2023-03-01T00:08:58;4.30;99.90
22450;DHT22;11392;57.390;-2.468;2023-03-01T00:11:28;4.30;99.90
22450;DHT22;11392;57.390;-2.468;2023-03-01T00:13:57;4.30;99.90
22450;DHT22;11392;57.390;-2.468;2023-03-01T00:16:36;4.30;99.90
22450;DHT22;11392;57.390;-2.468;2023-03-01T00:19:03;4.20;99.90
22450;DHT22;11392;57.390;-2.468;2023-03-01T00:21:30;4.20;99.90
22450;DHT22;11392;57.390;-2.468;2023-03-01T00:23:57;4.10;99.90
22450;DHT22;11392;57.390;-2.468;2023-03-01T00:26:25;4.10;99.90
22450;DHT22;11392;57.390;-2.468;2023-03-01T00:28:54;4.10;99.90
22450;DHT22;11392;57.390;-2.468;2023-03-01T00:31:24;4.20;99.90
22450;DHT22;11392;57.390;-2.468;2023-03-01T00:33:56;4.10;99.90
22450;DHT22;11392;57.390;-2.468;2023-03-01T00:36:26;4.10;99.90
22450;DHT22;11392;57.390;-2.468;2023-03-01T00:38:53;4.10;99.90
22450;DHT22;11392;57.390;-2.468;2023-03-01T00:41:21;4.10;99.90
22450;DHT22;11392;57.390;-2.468;2023-03-01T00:43:53;4.10;99.90
22450;DHT22;11392;57.390;-2.468;2023-03-01T00:46:25;4.10;99.90
22450;DHT22;11392;57.390;-2.468;2023-03-01T00:48:53;4.00;99.90
22450;DHT22;11392;57.390;-2.468;2023-03-01T00:51:28;4.00;99.90
22450;DHT22;11392;57.390;-2.468;2023-03-01T00:53:58;4.00;99.90
22450;DHT22;11392;57.390;-2.468;2023-03-01T00:56:26;4.00;99.90
22450;DHT22;11392;57.390;-2.468;2023-03-01T00:58:53;4.10;99.90
22450;DHT22;11392;57.390;-2.468;2023-03-01T01:01:23;4.10;99.90
22450;DHT22;11392;57.390;-2.468;2023-03-01T01:03:56;4.20;99.90
22450;DHT22;11392;57.390;-2.468;2023-03-01T01:06:40;4.10;99.90
22450;DHT22;11392;57.390;-2.468;2023-03-01T01:09:13;4.10;99.90
22450;DHT22;11392;57.390;-2.468;2023-03-01T01:11:48;4.10;99.90
22450;DHT22;11392;57.390;-2.468;2023-03-01T01:14:16;4.20;99.90
22450;DHT22;11392;57.390;-2.468;2023-03-01T01:16:44;4.30;99.90
22450;DHT22;11392;57.390;-2.468;2023-03-01T01:19:11;4.20;99.90
22450;DHT22;11392;57.390;-2.468;2023-03-01T01:21:38;4.20;99.90
22450;DHT22;11392;57.390;-2.468;2023-03-01T01:24:06;4.10;99.90
22450;DHT22;11392;57.390;-2.468;2023-03-01T01:26:34;4.00;99.90
22450;DHT22;11392;57.390;-2.468;2023-03-01T01:29:03;3.80;99.90
22450;DHT22;11392;57.390;-2.468;2023-03-01T01:31:31;3.60;99.90
22450;DHT22;11392;57.390;-2.468;2023-03-01T01:34:00;3.60;99.90
22450;DHT22;11392;57.390;-2.468;2023-03-01T01:36:28;3.60;99.90
22450;DHT22;11392;57.390;-2.468;2023-03-01T01:38:55;3.60;99.90
22450;DHT22;11392;57.390;-2.468;2023-03-01T01:41:23;3.60;99.90
22450;DHT22;11392;57.390;-2.468;2023-03-01T01:47:07;3.40;99.90
22450;DHT22;11392;57.390;-2.468;2023-03-01T01:49:42;3.40;99.90
22450;DHT22;11392;57.390;-2.468;2023-03-01T01:57:35;3.40;99.90
22450;DHT22;11392;57.390;-2.468;2023-03-01T02:00:19;3.40;99.90
22450;DHT22;11392;57.390;-2.468;2023-03-01T02:02:48;3.40;99.90
22450;DHT22;11392;57.390;-2.468;2023-03-01T02:05:32;3.40;99.90
22450;DHT22;11392;57.390;-2.468;2023-03-01T02:08:01;3.50;99.90
22450;DHT22;11392;57.390;-2.468;2023-03-01T02:10:29;3.60;99.90
22450;DHT22;11392;57.390;-2.468;2023-03-01T02:13:00;3.60;99.90
22450;DHT22;11392;57.390;-2.468;2023-03-01T02:15:32;3.70;99.90
22450;DHT22;11392;57.390;-2.468;2023-03-01T02:18:01;3.70;99.90
22450;DHT22;11392;57.390;-2.468;2023-03-01T02:20:56;3.80;99.90
22450;DHT22;11392;57.390;-2.468;2023-03-01T02:23:27;3.90;99.90
22450;DHT22;11392;57.390;-2.468;2023-03-01T02:26:00;3.80;99.90
22450;DHT22;11392;57.390;-2.468;2023-03-01T02:28:32;3.90;99.90
22450;DHT22;11392;57.390;-2.468;2023-03-01T02:31:01;4.00;99.90
22450;DHT22;11392;57.390;-2.468;2023-03-01T02:33:48;4.00;99.90
22450;DHT22;11392;57.390;-2.468;2023-03-01T02:36:18;4.10;99.90
22450;DHT22;11392;57.390;-2.468;2023-03-01T02:38:47;4.10;99.90
22450;DHT22;11392;57.390;-2.468;2023-03-01T02:41:16;4.20;99.90
22450;DHT22;11392;57.390;-2.468;2023-03-01T02:43:44;4.20;99.90
22450;DHT22;11392;57.390;-2.468;2023-03-01T02:46:20;4.30;99.90
22450;DHT22;11392;57.390;-2.468;2023-03-01T02:48:49;4.30;99.90
22450;DHT22;11392;57.390;-2.468;2023-03-01T02:53:53;4.40;99.90
22450;DHT22;11392;57.390;-2.468;2023-03-01T02:56:23;4.40;99.90
22450;DHT22;11392;57.390;-2.468;2023-03-01T02:58:50;4.40;99.90
22450;DHT22;11392;57.390;-2.468;2023-03-01T03:01:20;4.40;99.90
22450;DHT22;11392;57.390;-2.468;2023-03-01T03:03:47;4.40;99.90
22450;DHT22;11392;57.390;-2.468;2023-03-01T03:06:14;4.40;99.90
22450;DHT22;11392;57.390;-2.468;2023-03-01T03:08:41;4.40;99.90
22450;DHT22;11392;57.390;-2.468;2023-03-01T03:11:08;4.40;99.90
22450;DHT22;11392;57.390;-2.468;2023-03-01T03:13:35;4.50;99.90
22450;DHT22;11392;57.390;-2.468;2023-03-01T03:16:02;4.50;99.90
22450;DHT22;11392;57.390;-2.468;2023-03-01T03:18:30;4.50;99.90
22450;DHT22;11392;57.390;-2.468;2023-03-01T03:21:03;4.50;99.90
22450;DHT22;11392;57.390;-2.468;2023-03-01T03:23:29;4.60;99.90
22450;DHT22;11392;57.390;-2.468;2023-03-01T03:25:56;4.60;99.90
22450;DHT22;11392;57.390;-2.468;2023-03-01T03:28:23;4.60;99.90
22450;DHT22;11392;57.390;-2.468;2023-03-01T03:30:51;4.70;99.90
22450;DHT22;11392;57.390;-2.468;2023-03-01T03:33:18;4.60;99.90
22450;DHT22;11392;57.390;-2.468;2023-03-01T03:35:47;4.70;99.90
22450;DHT22;11392;57.390;-2.468;2023-03-01T03:38:17;4.70;99.90
22450;DHT22;11392;57.390;-2.468;2023-03-01T03:41:00;4.60;99.90
22450;DHT22;11392;57.390;-2.468;2023-03-01T03:43:35;4.70;99.90
22450;DHT22;11392;57.390;-2.468;2023-03-01T03:46:04;4.70;99.90
22450;DHT22;11392;57.390;-2.468;2023-03-01T03:48:36;4.70;99.90
22450;DHT22;11392;57.390;-2.468;2023-03-01T03:51:03;4.60;99.90
22450;DHT22;11392;57.390;-2.468;2023-03-01T03:53:32;4.60;99.90
22450;DHT22;11392;57.390;-2.468;2023-03-01T03:56:00;4.60;99.90
22450;DHT22;11392;57.390;-2.468;2023-03-01T03:58:27;4.60;99.90
22450;DHT22;11392;57.390;-2.468;2023-03-01T04:00:55;4.70;99.90
22450;DHT22;11392;57.390;-2.468;2023-03-01T04:03:24;4.70;99.90
22450;DHT22;11392;57.390;-2.468;2023-03-01T04:05:52;4.60;99.90
22450;DHT22;11392;57.390;-2.468;2023-03-01T04:08:21;4.60;99.90
22450;DHT22;11392;57.390;-2.468;2023-03-01T04:10:51;4.60;99.90
22450;DHT22;11392;57.390;-2.468;2023-03-01T04:13:21;4.70;99.90
22450;DHT22;11392;57.390;-2.468;2023-03-01T04:15:49;4.70;99.90
22450;DHT22;11392;57.390;-2.468;2023-03-01T04:18:19;4.70;99.90
22450;DHT22;11392;57.390;-2.468;2023-03-01T04:20:47;4.70;99.90
22450;DHT22;11392;57.390;-2.468;2023-03-01T04:23:20;4.70;99.90
22450;DHT22;11392;57.390;-2.468;2023-03-01T04:25:58;4.70;99.90
22450;DHT22;11392;57.390;-2.468;2023-03-01T04:28:37;4.80;99.90
22450;DHT22;11392;57.390;-2.468;2023-03-01T04:31:11;4.80;99.90
22450;DHT22;11392;57.390;-2.468;2023-03-01T04:33:49;4.70;99.90
22450;DHT22;11392;57.390;-2.468;2023-03-01T04:36:20;4.80;99.90
22450;DHT22;11392;57.390;-2.468;2023-03-01T04:38:48;4.80;99.90
22450;DHT22;11392;57.390;-2.468;2023-03-01T04:41:17;4.90;99.90
22450;DHT22;11392;57.390;-2.468;2023-03-01T04:43:45;4.90;99.90
22450;DHT22;11392;57.390;-2.468;2023-03-01T04:46:17;4.90;99.90
22450;DHT22;11392;57.390;-2.468;2023-03-01T04:48:45;4.90;99.90
22450;DHT22;11392;57.390;-2.468;2023-03-01T04:51:14;4.90;99.90
22450;DHT22;11392;57.390;-2.468;2023-03-01T04:53:42;4.90;99.90
22450;DHT22;11392;57.390;-2.468;2023-03-01T04:56:09;4.90;99.90
22450;DHT22;11392;57.390;-2.468;2023-03-01T04:58:37;5.00;99.90
22450;DHT22;11392;57.390;-2.468;2023-03-01T05:01:16;4.90;99.90
22450;DHT22;11392;57.390;-2.468;2023-03-01T05:03:45;5.00;99.90
22450;DHT22;11392;57.390;-2.468;2023-03-01T05:06:13;4.90;99.90
22450;DHT22;11392;57.390;-2.468;2023-03-01T05:08:41;4.90;99.90
22450;DHT22;11392;57.390;-2.468;2023-03-01T05:11:09;5.00;99.90
22450;DHT22;11392;57.390;-2.468;2023-03-01T05:13:37;5.00;99.90
22450;DHT22;11392;57.390;-2.468;2023-03-01T05:16:06;5.00;99.90
22450;DHT22;11392;57.390;-2.468;2023-03-01T05:18:33;5.00;99.90
22450;DHT22;11392;57.390;-2.468;2023-03-01T05:21:09;5.00;99.90
22450;DHT22;11392;57.390;-2.468;2023-03-01T05:23:37;5.00;99.90
22450;DHT22;11392;57.390;-2.468;2023-03-01T05:26:05;5.00;99.90
22450;DHT22;11392;57.390;-2.468;2023-03-01T05:28:36;5.10;99.90
22450;DHT22;11392;57.390;-2.468;2023-03-01T05:31:05;5.00;99.90
22450;DHT22;11392;57.390;-2.468;2023-03-01T05:33:37;5.10;99.90
22450;DHT22;11392;57.390;-2.468;2023-03-01T05:36:08;5.10;99.90
22450;DHT22;11392;57.390;-2.468;2023-03-01T05:38:36;5.10;99.90
22450;DHT22;11392;57.390;-2.468;2023-03-01T05:41:03;5.10;99.90
22450;DHT22;11392;57.390;-2.468;2023-03-01T05:43:31;5.10;99.90
22450;DHT22;11392;57.390;-2.468;2023-03-01T05:46:01;5.10;99.90
22450;DHT22;11392;57.390;-2.468;2023-03-01T05:48:28;5.00;99.90
22450;DHT22;11392;57.390;-2.468;2023-03-01T05:50:57;5.00;99.90
22450;DHT22;11392;57.390;-2.468;2023-03-01T05:53:26;5.00;99.90
22450;DHT22;11392;57.390;-2.468;2023-03-01T05:55:53;4.90;99.90
22450;DHT22;11392;57.390;-2.468;2023-03-01T05:58:20;5.00;99.90
22450;DHT22;11392;57.390;-2.468;2023-03-01T06:00:48;5.00;99.90
22450;DHT22;11392;57.390;-2.468;2023-03-01T06:03:17;5.00;99.90
22450;DHT22;11392;57.390;-2.468;2023-03-01T06:05:44;5.00;99.90
22450;DHT22;11392;57.390;-2.468;2023-03-01T06:08:12;5.00;99.90
22450;DHT22;11392;57.390;-2.468;2023-03-01T06:10:39;5.00;99.90
22450;DHT22;11392;57.390;-2.468;2023-03-01T06:13:07;5.00;99.90
22450;DHT22;11392;57.390;-2.468;2023-03-01T06:15:35;5.00;99.90
22450;DHT22;11392;57.390;-2.468;2023-03-01T06:18:02;5.00;99.90
22450;DHT22;11392;57.390;-2.468;2023-03-01T06:20:29;5.00;99.90
22450;DHT22;11392;57.390;-2.468;2023-03-01T06:22:56;4.90;99.90
22450;DHT22;11392;57.390;-2.468;2023-03-01T06:25:25;4.90;99.90
22450;DHT22;11392;57.390;-2.468;2023-03-01T06:27:52;4.80;99.90
22450;DHT22;11392;57.390;-2.468;2023-03-01T06:30:21;4.80;99.90
22450;DHT22;11392;57.390;-2.468;2023-03-01T06:32:49;4.70;99.90
22450;DHT22;11392;57.390;-2.468;2023-03-01T06:35:17;4.70;99.90
22450;DHT22;11392;57.390;-2.468;2023-03-01T06:37:46;4.70;99.90
22450;DHT22;11392;57.390;-2.468;2023-03-01T06:40:13;4.70;99.90
22450;DHT22;11392;57.390;-2.468;2023-03-01T06:42:42;4.70;99.90
22450;DHT22;11392;57.390;-2.468;2023-03-01T06:45:10;4.70;99.90
22450;DHT22;11392;57.390;-2.468;2023-03-01T06:47:37;4.70;99.90
22450;DHT22;11392;57.390;-2.468;2023-03-01T06:50:04;4.70;99.90
22450;DHT22;11392;57.390;-2.468;2023-03-01T06:52:31;4.70;99.90
22450;DHT22;11392;57.390;-2.468;2023-03-01T06:54:59;4.80;99.90
22450;DHT22;11392;57.390;-2.468;2023-03-01T06:57:26;4.70;99.90
22450;DHT22;11392;57.390;-2.468;2023-03-01T06:59:54;4.60;99.90
22450;DHT22;11392;57.390;-2.468;2023-03-01T07:02:21;4.60;99.90
22450;DHT22;11392;57.390;-2.468;2023-03-01T07:04:49;4.50;99.90
22450;DHT22;11392;57.390;-2.468;2023-03-01T07:07:17;4.50;99.90
22450;DHT22;11392;57.390;-2.468;2023-03-01T07:09:45;4.50;99.90
22450;DHT22;11392;57.390;-2.468;2023-03-01T07:12:12;4.50;99.90
22450;DHT22;11392;57.390;-2.468;2023-03-01T07:14:39;4.50;99.90
22450;DHT22;11392;57.390;-2.468;2023-03-01T07:17:07;4.50;99.90
22450;DHT22;11392;57.390;-2.468;2023-03-01T07:19:34;4.60;99.90
22450;DHT22;11392;57.390;-2.468;2023-03-01T07:22:01;4.60;99.90
22450;DHT22;11392;57.390;-2.468;2023-03-01T07:24:28;4.60;99.90
22450;DHT22;11392;57.390;-2.468;2023-03-01T07:26:55;4.70;99.90
22450;DHT22;11392;57.390;-2.468;2023-03-01T07:29:22;4.70;99.90
22450;DHT22;11392;57.390;-2.468;2023-03-01T07:31:49;4.60;99.90
22450;DHT22;11392;57.390;-2.468;2023-03-01T07:34:16;4.60;99.90
22450;DHT22;11392;57.390;-2.468;2023-03-01T07:36:43;4.60;99.90
22450;DHT22;11392;57.390;-2.468;2023-03-01T07:39:12;4.70;99.90
22450;DHT22;11392;57.390;-2.468;2023-03-01T07:41:39;4.60;99.90
22450;DHT22;11392;57.390;-2.468;2023-03-01T07:44:06;4.60;99.90
22450;DHT22;11392;57.390;-2.468;2023-03-01T07:46:33;4.70;99.90
22450;DHT22;11392;57.390;-2.468;2023-03-01T07:49:00;4.70;99.90
22450;DHT22;11392;57.390;-2.468;2023-03-01T07:51:27;4.70;99.90
22450;DHT22;11392;57.390;-2.468;2023-03-01T07:53:54;4.80;99.90
22450;DHT22;11392;57.390;-2.468;2023-03-01T07:56:21;4.80;99.90
22450;DHT22;11392;57.390;-2.468;2023-03-01T07:58:48;4.80;99.90
22450;DHT22;11392;57.390;-2.468;2023-03-01T08:01:19;4.90;99.90
22450;DHT22;11392;57.390;-2.468;2023-03-01T08:03:47;4.90;99.90
22450;DHT22;11392;57.390;-2.468;2023-03-01T08:06:16;4.90;99.90
22450;DHT22;11392;57.390;-2.468;2023-03-01T08:08:44;4.90;99.90
22450;DHT22;11392;57.390;-2.468;2023-03-01T08:11:12;5.00;99.90
22450;DHT22;11392;57.390;-2.468;2023-03-01T08:13:40;5.00;99.90
22450;DHT22;11392;57.390;-2.468;2023-03-01T08:16:12;5.10;99.90
22450;DHT22;11392;57.390;-2.468;2023-03-01T08:18:40;5.10;99.90
22450;DHT22;11392;57.390;-2.468;2023-03-01T08:21:10;5.10;99.90
22450;DHT22;11392;57.390;-2.468;2023-03-01T08:23:38;5.10;99.90
22450;DHT22;11392;57.390;-2.468;2023-03-01T08:26:07;5.10;99.90
22450;DHT22;11392;57.390;-2.468;2023-03-01T08:28:34;5.20;99.90
22450;DHT22;11392;57.390;-2.468;2023-03-01T08:31:01;5.20;99.90
22450;DHT22;11392;57.390;-2.468;2023-03-01T08:33:28;5.30;99.90
22450;DHT22;11392;57.390;-2.468;2023-03-01T08:36:03;5.30;99.90
22450;DHT22;11392;57.390;-2.468;2023-03-01T08:38:30;5.30;99.90
22450;DHT22;11392;57.390;-2.468;2023-03-01T08:41:00;5.40;99.90
22450;DHT22;11392;57.390;-2.468;2023-03-01T08:43:27;5.30;99.90
22450;DHT22;11392;57.390;-2.468;2023-03-01T08:45:54;5.30;99.90
22450;DHT22;11392;57.390;-2.468;2023-03-01T08:48:22;5.30;99.90
22450;DHT22;11392;57.390;-2.468;2023-03-01T08:50:49;5.30;99.90
22450;DHT22;11392;57.390;-2.468;2023-03-01T08:53:15;5.30;99.90
22450;DHT22;11392;57.390;-2.468;2023-03-01T08:55:42;5.30;99.90
22450;DHT22;11392;57.390;-2.468;2023-03-01T08:58:09;5.30;99.90
22450;DHT22;11392;57.390;-2.468;2023-03-01T09:00:36;5.40;99.90
22450;DHT22;11392;57.390;-2.468;2023-03-01T09:03:03;5.40;99.90
22450;DHT22;11392;57.390;-2.468;2023-03-01T09:05:36;5.50;99.90
22450;DHT22;11392;57.390;-2.468;2023-03-01T09:08:03;5.50;99.90
22450;DHT22;11392;57.390;-2.468;2023-03-01T09:10:31;5.50;99.90
22450;DHT22;11392;57.390;-2.468;2023-03-01T09:12:57;5.50;99.90
22450;DHT22;11392;57.390;-2.468;2023-03-01T09:15:24;5.50;99.90
22450;DHT22;11392;57.390;-2.468;2023-03-01T09:17:51;5.50;99.90
22450;DHT22;11392;57.390;-2.468;2023-03-01T09:20:19;5.60;99.90
22450;DHT22;11392;57.390;-2.468;2023-03-01T09:22:46;5.70;99.90
22450;DHT22;11392;57.390;-2.468;2023-03-01T09:25:13;5.70;99.90
22450;DHT22;11392;57.390;-2.468;2023-03-01T09:27:40;5.70;99.90
22450;DHT22;11392;57.390;-2.468;2023-03-01T09:30:08;5.80;99.90
22450;DHT22;11392;57.390;-2.468;2023-03-01T09:32:35;5.90;99.90
22450;DHT22;11392;57.390;-2.468;2023-03-01T09:35:02;6.00;99.90
22450;DHT22;11392;57.390;-2.468;2023-03-01T09:37:34;6.00;99.90
22450;DHT22;11392;57.390;-2.468;2023-03-01T09:40:03;6.00;99.90
22450;DHT22;11392;57.390;-2.468;2023-03-01T09:42:35;5.90;99.90
22450;DHT22;11392;57.390;-2.468;2023-03-01T09:45:10;5.90;99.90
22450;DHT22;11392;57.390;-2.468;2023-03-01T09:47:38;5.90;99.90
22450;DHT22;11392;57.390;-2.468;2023-03-01T09:50:13;5.80;99.90
22450;DHT22;11392;57.390;-2.468;2023-03-01T09:53:03;5.80;99.90
22450;DHT22;11392;57.390;-2.468;2023-03-01T09:55:43;5.80;99.90
22450;DHT22;11392;57.390;-2.468;2023-03-01T09:58:31;5.70;99.90
22450;DHT22;11392;57.390;-2.468;2023-03-01T10:01:30;5.80;99.90
22450;DHT22;11392;57.390;-2.468;2023-03-01T10:09:36;5.80;99.90
22450;DHT22;11392;57.390;-2.468;2023-03-01T10:12:17;5.80;99.90
22450;DHT22;11392;57.390;-2.468;2023-03-01T10:15:05;5.90;99.90
22450;DHT22;11392;57.390;-2.468;2023-03-01T10:17:51;5.90;99.90
22450;DHT22;11392;57.390;-2.468;2023-03-01T10:20:33;5.90;99.90
22450;DHT22;11392;57.390;-2.468;2023-03-01T10:23:04;5.90;99.90
22450;DHT22;11392;57.390;-2.468;2023-03-01T10:31:26;5.90;99.90
22450;DHT22;11392;57.390;-2.468;2023-03-01T10:33:56;5.90;99.90
22450;DHT22;11392;57.390;-2.468;2023-03-01T10:36:26;6.00;99.90
22450;DHT22;11392;57.390;-2.468;2023-03-01T10:38:55;6.00;99.90
22450;DHT22;11392;57.390;-2.468;2023-03-01T10:41:25;6.00;99.90
22450;DHT22;11392;57.390;-2.468;2023-03-01T10:43:55;6.10;99.90
22450;DHT22;11392;57.390;-2.468;2023-03-01T10:46:36;6.10;99.90
22450;DHT22;11392;57.390;-2.468;2023-03-01T10:49:20;6.20;99.90
22450;DHT22;11392;57.390;-2.468;2023-03-01T10:51:49;6.20;99.90
22450;DHT22;11392;57.390;-2.468;2023-03-01T10:56:56;6.30;99.90
22450;DHT22;11392;57.390;-2.468;2023-03-01T10:59:29;6.40;99.90
22450;DHT22;11392;57.390;-2.468;2023-03-01T11:07:56;6.40;99.90
22450;DHT22;11392;57.390;-2.468;2023-03-01T11:10:32;6.40;99.90
22450;DHT22;11392;57.390;-2.468;2023-03-01T11:13:18;6.40;99.90
22450;DHT22;11392;57.390;-2.468;2023-03-01T11:16:07;6.40;99.90
22450;DHT22;11392;57.390;-2.468;2023-03-01T11:18:36;6.50;99.90
22450;DHT22;11392;57.390;-2.468;2023-03-01T11:21:15;6.50;99.90
22450;DHT22;11392;57.390;-2.468;2023-03-01T11:23:43;6.60;99.90
22450;DHT22;11392;57.390;-2.468;2023-03-01T11:26:13;6.60;99.90
22450;DHT22;11392;57.390;-2.468;2023-03-01T11:28:42;6.70;99.90
22450;DHT22;11392;57.390;-2.468;2023-03-01T11:31:11;6.80;99.90
22450;DHT22;11392;57.390;-2.468;2023-03-01T11:33:55;6.90;99.90
22450;DHT22;11392;57.390;-2.468;2023-03-01T11:39:47;7.00;99.90
22450;DHT22;11392;57.390;-2.468;2023-03-01T11:42:56;7.00;99.90
22450;DHT22;11392;57.390;-2.468;2023-03-01T11:45:28;7.00;99.90
22450;DHT22;11392;57.390;-2.468;2023-03-01T11:50:52;7.10;99.90
22450;DHT22;11392;57.390;-2.468;2023-03-01T11:53:42;7.10;99.90
22450;DHT22;11392;57.390;-2.468;2023-03-01T11:59:23;7.20;99.90
22450;DHT22;11392;57.390;-2.468;2023-03-01T12:02:21;7.10;99.90
22450;DHT22;11392;57.390;-2.468;2023-03-01T12:10:47;7.10;99.90
22450;DHT22;11392;57.390;-2.468;2023-03-01T12:16:15;7.10;99.90
22450;DHT22;11392;57.390;-2.468;2023-03-01T12:22:17;7.00;99.90
22450;DHT22;11392;57.390;-2.468;2023-03-01T12:28:01;6.90;99.90
22450;DHT22;11392;57.390;-2.468;2023-03-01T12:39:21;6.90;99.90
22450;DHT22;11392;57.390;-2.468;2023-03-01T12:44:49;6.90;99.90
22450;DHT22;11392;57.390;-2.468;2023-03-01T12:50:21;6.90;99.90
22450;DHT22;11392;57.390;-2.468;2023-03-01T12:52:56;6.90;99.90
22450;DHT22;11392;57.390;-2.468;2023-03-01T12:55:31;6.90;99.90
22450;DHT22;11392;57.390;-2.468;2023-03-01T13:09:44;7.00;99.90
22450;DHT22;11392;57.390;-2.468;2023-03-01T13:12:48;7.00;99.90
22450;DHT22;11392;57.390;-2.468;2023-03-01T13:17:55;7.00;99.90
22450;DHT22;11392;57.390;-2.468;2023-03-01T13:20:47;7.00;99.90
22450;DHT22;11392;57.390;-2.468;2023-03-01T13:26:01;6.90;99.90
22450;DHT22;11392;57.390;-2.468;2023-03-01T13:28:44;7.00;99.90
22450;DHT22;11392;57.390;-2.468;2023-03-01T13:33:52;7.00;99.90
22450;DHT22;11392;57.390;-2.468;2023-03-01T13:39:00;7.00;99.90
22450;DHT22;11392;57.390;-2.468;2023-03-01T13:47:16;6.90;99.90
22450;DHT22;11392;57.390;-2.468;2023-03-01T13:49:52;7.00;99.90
22450;DHT22;11392;57.390;-2.468;2023-03-01T13:52:37;7.00;99.90
22450;DHT22;11392;57.390;-2.468;2023-03-01T13:55:35;7.00;99.90
22450;DHT22;11392;57.390;-2.468;2023-03-01T13:58:24;7.00;99.90
22450;DHT22;11392;57.390;-2.468;2023-03-01T14:01:03;7.00;99.90
22450;DHT22;11392;57.390;-2.468;2023-03-01T14:03:33;7.00;99.90
22450;DHT22;11392;57.390;-2.468;2023-03-01T14:06:08;7.00;99.90
22450;DHT22;11392;57.390;-2.468;2023-03-01T14:08:48;7.00;99.90
22450;DHT22;11392;57.390;-2.468;2023-03-01T14:17:00;7.20;99.90
22450;DHT22;11392;57.390;-2.468;2023-03-01T14:19:31;7.20;99.90
22450;DHT22;11392;57.390;-2.468;2023-03-01T14:22:22;7.20;99.90
22450;DHT22;11392;57.390;-2.468;2023-03-01T14:24:53;7.30;99.90
22450;DHT22;11392;57.390;-2.468;2023-03-01T14:27:21;7.30;99.90
22450;DHT22;11392;57.390;-2.468;2023-03-01T14:30:02;7.30;99.90
22450;DHT22;11392;57.390;-2.468;2023-03-01T14:32:31;7.30;99.90
22450;DHT22;11392;57.390;-2.468;2023-03-01T14:35:00;7.40;99.90
22450;DHT22;11392;57.390;-2.468;2023-03-01T14:37:28;7.50;99.90
22450;DHT22;11392;57.390;-2.468;2023-03-01T14:39:56;7.40;99.90
22450;DHT22;11392;57.390;-2.468;2023-03-01T14:42:27;7.50;99.90
22450;DHT22;11392;57.390;-2.468;2023-03-01T14:44:57;7.40;99.90
22450;DHT22;11392;57.390;-2.468;2023-03-01T14:47:36;7.50;99.90
22450;DHT22;11392;57.390;-2.468;2023-03-01T14:50:26;7.60;99.90
22450;DHT22;11392;57.390;-2.468;2023-03-01T14:56:18;7.50;99.90
22450;DHT22;11392;57.390;-2.468;2023-03-01T14:58:57;7.60;99.90
22450;DHT22;11392;57.390;-2.468;2023-03-01T15:01:26;7.60;99.90
22450;DHT22;11392;57.390;-2.468;2023-03-01T15:03:54;7.60;99.90
22450;DHT22;11392;57.390;-2.468;2023-03-01T15:06:23;7.60;99.90
22450;DHT22;11392;57.390;-2.468;2023-03-01T15:08:56;7.60;99.90
22450;DHT22;11392;57.390;-2.468;2023-03-01T15:11:49;7.60;99.90
22450;DHT22;11392;57.390;-2.468;2023-03-01T15:14:28;7.60;99.90
22450;DHT22;11392;57.390;-2.468;2023-03-01T15:16:59;7.60;99.90
22450;DHT22;11392;57.390;-2.468;2023-03-01T15:19:29;7.50;99.90
22450;DHT22;11392;57.390;-2.468;2023-03-01T15:22:12;7.40;99.90
22450;DHT22;11392;57.390;-2.468;2023-03-01T15:24:47;7.40;99.90
22450;DHT22;11392;57.390;-2.468;2023-03-01T15:27:18;7.40;99.90
22450;DHT22;11392;57.390;-2.468;2023-03-01T15:29:59;7.40;99.90
22450;DHT22;11392;57.390;-2.468;2023-03-01T15:32:34;7.40;99.90
22450;DHT22;11392;57.390;-2.468;2023-03-01T15:35:44;7.40;99.90
22450;DHT22;11392;57.390;-2.468;2023-03-01T15:38:29;7.40;99.90
22450;DHT22;11392;57.390;-2.468;2023-03-01T15:41:02;7.40;99.90
22450;DHT22;11392;57.390;-2.468;2023-03-01T15:43:42;7.40;99.90
22450;DHT22;11392;57.390;-2.468;2023-03-01T15:46:22;7.40;99.90
22450;DHT22;11392;57.390;-2.468;2023-03-01T15:48:56;7.40;99.90
22450;DHT22;11392;57.390;-2.468;2023-03-01T15:51:36;7.40;99.90
22450;DHT22;11392;57.390;-2.468;2023-03-01T15:54:19;7.40;99.90
22450;DHT22;11392;57.390;-2.468;2023-03-01T15:56:47;7.40;99.90
22450;DHT22;11392;57.390;-2.468;2023-03-01T15:59:14;7.40;99.90
22450;DHT22;11392;57.390;-2.468;2023-03-01T16:01:42;7.40;99.90
22450;DHT22;11392;57.390;-2.468;2023-03-01T16:04:17;7.40;99.90
22450;DHT22;11392;57.390;-2.468;2023-03-01T16:06:50;7.40;99.90
22450;DHT22;11392;57.390;-2.468;2023-03-01T16:09:25;7.50;99.90
22450;DHT22;11392;57.390;-2.468;2023-03-01T16:11:53;7.30;99.90
22450;DHT22;11392;57.390;-2.468;2023-03-01T16:14:21;7.40;99.90
22450;DHT22;11392;57.390;-2.468;2023-03-01T16:16:49;7.40;99.90
22450;DHT22;11392;57.390;-2.468;2023-03-01T16:19:16;7.30;99.90
22450;DHT22;11392;57.390;-2.468;2023-03-01T16:21:43;7.30;99.90
22450;DHT22;11392;57.390;-2.468;2023-03-01T16:24:17;7.30;99.90
22450;DHT22;11392;57.390;-2.468;2023-03-01T16:26:44;7.30;99.90
22450;DHT22;11392;57.390;-2.468;2023-03-01T16:29:11;7.30;99.90
22450;DHT22;11392;57.390;-2.468;2023-03-01T16:31:38;7.30;99.90
22450;DHT22;11392;57.390;-2.468;2023-03-01T16:34:05;7.20;99.90
22450;DHT22;11392;57.390;-2.468;2023-03-01T16:36:32;7.30;99.90
22450;DHT22;11392;57.390;-2.468;2023-03-01T16:39:00;7.30;99.90
22450;DHT22;11392;57.390;-2.468;2023-03-01T16:41:27;7.30;99.90
22450;DHT22;11392;57.390;-2.468;2023-03-01T16:43:56;7.20;99.90
22450;DHT22;11392;57.390;-2.468;2023-03-01T16:46:25;7.20;99.90
22450;DHT22;11392;57.390;-2.468;2023-03-01T16:48:54;7.20;99.90
22450;DHT22;11392;57.390;-2.468;2023-03-01T16:51:22;7.20;99.90
22450;DHT22;11392;57.390;-2.468;2023-03-01T16:53:53;7.30;99.90
22450;DHT22;11392;57.390;-2.468;2023-03-01T16:56:20;7.30;99.90
22450;DHT22;11392;57.390;-2.468;2023-03-01T16:58:48;7.20;99.90
22450;DHT22;11392;57.390;-2.468;2023-03-01T17:01:18;7.10;99.90
22450;DHT22;11392;57.390;-2.468;2023-03-01T17:03:47;7.10;99.90
22450;DHT22;11392;57.390;-2.468;2023-03-01T17:06:19;7.10;99.90
22450;DHT22;11392;57.390;-2.468;2023-03-01T17:08:51;7.00;99.90
22450;DHT22;11392;57.390;-2.468;2023-03-01T17:11:19;7.00;99.90
22450;DHT22;11392;57.390;-2.468;2023-03-01T17:13:47;7.00;99.90
22450;DHT22;11392;57.390;-2.468;2023-03-01T17:16:18;7.00;99.90
22450;DHT22;11392;57.390;-2.468;2023-03-01T17:18:46;7.00;99.90
22450;DHT22;11392;57.390;-2.468;2023-03-01T17:21:14;7.00;99.90
22450;DHT22;11392;57.390;-2.468;2023-03-01T17:23:42;7.00;99.90
22450;DHT22;11392;57.390;-2.468;2023-03-01T17:26:09;7.00;99.90
22450;DHT22;11392;57.390;-2.468;2023-03-01T17:28:37;7.00;99.90
22450;DHT22;11392;57.390;-2.468;2023-03-01T17:31:06;6.90;99.90
22450;DHT22;11392;57.390;-2.468;2023-03-01T17:33:34;6.90;99.90
22450;DHT22;11392;57.390;-2.468;2023-03-01T17:36:01;6.90;99.90
22450;DHT22;11392;57.390;-2.468;2023-03-01T17:38:28;6.90;99.90
22450;DHT22;11392;57.390;-2.468;2023-03-01T17:40:58;6.80;99.90
22450;DHT22;11392;57.390;-2.468;2023-03-01T17:43:26;6.70;99.90